createdAt,value
2019-01-28T00:00:00.590Z,63.53
2019-01-28T00:05:06.556Z,79.13
2019-01-28T00:10:11.597Z,78.40
2019-01-28T00:15:17.593Z,83.13
2019-01-28T00:20:22.548Z,88.57
2019-01-28T00:25:27.566Z,87.47
2019-01-28T00:30:32.577Z,95.57
2019-01-28T00:35:37.552Z,96.80
2019-01-28T00:40:42.551Z,103.70
2019-01-28T00:45:47.529Z,96.20
2019-01-28T00:50:52.761Z,91.17
2019-01-28T00:55:58.021Z,101.70
2019-01-28T01:01:03.154Z,101.10
2019-01-28T01:06:08.318Z,133.33
2019-01-28T01:11:13.325Z,100.53
2019-01-28T01:16:18.413Z,105.43
2019-01-28T01:21:23.396Z,107.60
2019-01-28T01:26:28.411Z,98.90
2019-01-28T01:31:34.568Z,101.10
2019-01-28T01:36:39.608Z,101.60
2019-01-28T01:41:44.603Z,96.57
2019-01-28T01:46:49.610Z,100.47
2019-01-28T01:51:54.632Z,98.93
2019-01-28T01:56:59.612Z,100.03
2019-01-28T02:02:04.582Z,95.87
2019-01-28T02:07:11.500Z,95.50
2019-01-28T02:12:16.232Z,105.43
2019-01-28T02:17:21.229Z,90.50
2019-01-28T02:22:26.202Z,95.00
2019-01-28T02:27:31.173Z,71.77
2019-01-28T02:32:36.185Z,77.23
2019-01-28T02:37:41.223Z,89.80
2019-01-28T02:42:47.619Z,96.10
2019-01-28T02:47:52.622Z,114.17
2019-01-28T02:52:57.673Z,111.70
2019-01-28T02:58:02.656Z,118.70
2019-01-28T03:03:07.659Z,111.03
2019-01-28T03:08:12.653Z,110.30
2019-01-28T03:13:17.643Z,115.60
2019-01-28T03:18:24.393Z,105.70
2019-01-28T03:23:29.976Z,108.87
2019-01-28T03:28:36.708Z,94.47
2019-01-28T03:33:41.697Z,73.30
2019-01-28T03:38:46.696Z,60.43
2019-01-28T03:43:51.693Z,64.67
2019-01-28T03:48:56.726Z,70.40
2019-01-28T03:54:01.703Z,70.23
2019-01-28T03:59:06.812Z,77.13
2019-01-28T04:04:11.826Z,85.30
2019-01-28T04:09:16.889Z,95.80
2019-01-28T04:14:22.856Z,97.10
2019-01-28T04:19:27.875Z,94.20
2019-01-28T04:24:32.863Z,88.30
2019-01-28T04:29:38.026Z,90.47
2019-01-28T04:34:43.068Z,91.90
2019-01-28T04:39:48.074Z,92.13
2019-01-28T04:44:53.089Z,92.47
2019-01-28T04:49:58.248Z,87.80
2019-01-28T04:55:03.254Z,94.67
2019-01-28T05:00:13.588Z,90.80
2019-01-28T05:05:18.632Z,95.93
2019-01-28T05:10:23.674Z,94.70
2019-01-28T05:15:28.660Z,97.50
2019-01-28T05:20:35.517Z,97.23
2019-01-28T05:25:40.493Z,87.07
2019-01-28T05:30:45.725Z,87.40
2019-01-28T05:35:50.764Z,90.63
2019-01-28T05:40:55.824Z,89.37
2019-01-28T05:46:00.816Z,88.30
2019-01-28T05:51:07.116Z,95.77
2019-01-28T05:56:12.091Z,91.93
2019-01-28T06:01:17.099Z,95.03
2019-01-28T06:06:22.116Z,92.73
2019-01-28T06:11:27.113Z,90.50
2019-01-28T06:16:32.092Z,90.03
2019-01-28T06:21:37.096Z,95.50
2019-01-28T06:26:42.343Z,103.20
2019-01-28T06:31:47.304Z,94.10
2019-01-28T06:36:52.309Z,89.53
2019-01-28T06:41:57.367Z,105.13
2019-01-28T06:47:02.691Z,110.23
2019-01-28T06:52:08.993Z,111.13
2019-01-28T06:57:14.018Z,131.63
2019-01-28T07:02:19.005Z,144.57
2019-01-28T07:07:24.001Z,131.57
2019-01-28T07:12:30.003Z,131.73
2019-01-28T07:17:34.997Z,133.77
2019-01-28T07:22:40.024Z,123.17
2019-01-28T07:27:45.154Z,122.87
2019-01-28T07:32:50.173Z,127.20
2019-01-28T07:37:55.375Z,121.90
2019-01-28T07:43:00.329Z,121.93
2019-01-28T07:48:06.429Z,133.10
2019-01-28T07:53:11.462Z,130.53
2019-01-28T07:58:16.583Z,146.13
2019-01-28T08:03:21.788Z,153.20
2019-01-28T08:08:26.793Z,194.50
2019-01-28T08:13:31.773Z,205.40
2019-01-28T08:18:36.772Z,200.80
2019-01-28T08:23:41.754Z,196.73
2019-01-28T08:28:46.748Z,188.90
2019-01-28T08:33:51.782Z,186.60
2019-01-28T08:38:56.815Z,162.77
2019-01-28T08:44:01.819Z,148.17
2019-01-28T08:49:07.489Z,152.23
2019-01-28T08:54:12.440Z,150.47
2019-01-28T08:59:17.465Z,142.87
2019-01-28T09:04:22.463Z,129.80
2019-01-28T09:09:27.436Z,133.77
2019-01-28T09:14:33.544Z,126.20
2019-01-28T09:19:38.523Z,122.70
2019-01-28T09:24:43.548Z,125.00
2019-01-28T09:29:48.984Z,136.00
2019-01-28T09:34:53.972Z,139.43
2019-01-28T09:39:59.015Z,138.43
2019-01-28T09:45:04.320Z,149.40
2019-01-28T09:50:10.133Z,145.10
2019-01-28T09:55:15.359Z,135.30
2019-01-28T10:00:26.428Z,146.77
2019-01-28T10:05:31.636Z,165.47
2019-01-28T10:10:38.688Z,182.30
2019-01-28T10:15:43.704Z,194.60
2019-01-28T10:20:49.884Z,191.43
2019-01-28T10:25:57.723Z,198.50
2019-01-28T10:31:01.499Z,179.13
2019-01-28T10:36:06.841Z,170.93
2019-01-28T10:41:11.860Z,164.77
2019-01-28T10:46:16.858Z,151.10
2019-01-28T10:51:21.844Z,158.70
2019-01-28T10:56:26.857Z,182.67
2019-01-28T11:01:31.957Z,184.90
2019-01-28T11:06:36.995Z,161.93
2019-01-28T11:11:42.953Z,145.53
2019-01-28T11:16:48.097Z,138.67
2019-01-28T11:21:53.065Z,163.27
2019-01-28T11:26:58.062Z,118.70
2019-01-28T11:32:03.069Z,114.03
2019-01-28T11:37:08.239Z,92.83
2019-01-28T11:42:13.508Z,90.87
2019-01-28T11:47:18.607Z,95.00
2019-01-28T11:52:23.694Z,91.83
2019-01-28T11:57:28.849Z,116.53
2019-01-28T12:02:35.750Z,185.83
2019-01-28T12:07:40.724Z,170.97
2019-01-28T12:12:47.091Z,115.47
2019-01-28T12:17:52.460Z,122.67
2019-01-28T12:22:57.520Z,166.37
2019-01-28T12:28:02.659Z,174.97
2019-01-28T12:33:07.672Z,289.50
2019-01-28T12:38:12.702Z,119.77
2019-01-28T12:43:17.736Z,90.93
2019-01-28T12:48:23.204Z,73.83
2019-01-28T12:53:28.631Z,76.13
2019-01-28T12:58:33.641Z,70.03
2019-01-28T13:03:38.738Z,56.57
2019-01-28T13:08:43.730Z,98.53
2019-01-28T13:13:48.709Z,96.53
2019-01-28T13:18:53.737Z,120.43
2019-01-28T13:23:58.735Z,90.03
2019-01-28T13:29:03.733Z,84.47
2019-01-28T13:34:08.961Z,93.43
2019-01-28T13:39:13.978Z,154.23
2019-01-28T13:44:18.954Z,103.90
2019-01-28T13:49:23.992Z,105.97
2019-01-28T13:54:28.986Z,128.13
2019-01-28T13:59:34.168Z,123.47
2019-01-28T14:04:39.208Z,131.43
2019-01-28T14:09:44.220Z,120.37
2019-01-28T14:14:49.238Z,120.83
2019-01-28T14:19:54.577Z,113.70
2019-01-28T14:24:59.601Z,119.13
2019-01-28T14:30:06.703Z,115.90
2019-01-28T14:35:11.769Z,119.00
2019-01-28T14:40:19.176Z,147.50
2019-01-28T14:45:24.415Z,135.20
2019-01-28T14:50:31.429Z,130.53
2019-01-28T14:55:36.720Z,191.93
2019-01-28T15:00:43.164Z,139.87
2019-01-28T15:05:48.151Z,114.53
2019-01-28T15:10:53.201Z,67.87
2019-01-28T15:15:58.234Z,91.60
2019-01-28T15:21:03.360Z,84.77
2019-01-28T15:26:08.761Z,88.73
2019-01-28T15:31:13.735Z,87.17
2019-01-28T15:36:18.768Z,81.53
2019-01-28T15:41:23.755Z,100.13
2019-01-28T15:46:29.060Z,100.40
2019-01-28T15:51:34.042Z,99.50
2019-01-28T15:56:39.042Z,145.80
2019-01-28T16:01:47.387Z,52.80
2019-01-28T16:06:52.373Z,42.93
2019-01-28T16:11:57.367Z,30.40
2019-01-28T16:17:02.364Z,33.97
2019-01-28T16:22:07.996Z,42.43
2019-01-28T16:27:12.957Z,40.50
2019-01-28T16:32:17.943Z,46.57
2019-01-28T16:37:22.973Z,62.60
2019-01-28T16:42:27.997Z,84.63
2019-01-28T16:47:32.985Z,53.23
2019-01-28T16:52:37.976Z,60.83
2019-01-28T16:57:43.062Z,49.43
2019-01-28T17:02:48.117Z,48.57
2019-01-28T17:07:53.323Z,36.17
2019-01-28T17:12:58.275Z,26.80
2019-01-28T17:18:04.581Z,27.07
2019-01-28T17:23:09.567Z,30.47
2019-01-28T17:28:14.553Z,27.37
2019-01-28T17:33:19.555Z,26.13
2019-01-28T17:38:24.579Z,29.20
2019-01-28T17:43:29.585Z,25.77
2019-01-28T17:48:34.556Z,25.50
2019-01-28T17:53:39.533Z,23.97
2019-01-28T17:58:44.788Z,23.60
2019-01-28T18:03:50.396Z,25.33
2019-01-28T18:08:55.447Z,27.80
2019-01-28T18:14:00.447Z,27.83
2019-01-28T18:19:05.451Z,29.20
2019-01-28T18:24:10.440Z,27.10
2019-01-28T18:29:15.468Z,23.47
2019-01-28T18:34:20.443Z,27.57
2019-01-28T18:39:25.470Z,28.07
2019-01-28T18:44:30.472Z,24.70
2019-01-28T18:49:35.474Z,18.30
2019-01-28T18:54:40.760Z,20.37
2019-01-28T18:59:45.965Z,33.70
2019-01-28T19:04:50.964Z,51.20
2019-01-28T19:10:11.458Z,46.10
2019-01-28T19:15:41.425Z,44.97
2019-01-28T19:20:54.435Z,44.07
2019-01-28T19:25:59.432Z,44.37
2019-01-28T19:31:04.775Z,45.30
2019-01-28T19:36:09.775Z,43.40
2019-01-28T19:41:14.870Z,44.83
2019-01-28T19:46:20.570Z,56.20
2019-01-28T19:51:25.576Z,64.17
2019-01-28T19:56:30.563Z,21.97
2019-01-28T20:01:35.573Z,31.40
2019-01-28T20:06:40.547Z,40.23
2019-01-28T20:11:45.537Z,45.27
2019-01-28T20:16:50.551Z,46.13
2019-01-28T20:21:55.537Z,54.90
2019-01-28T20:27:00.529Z,52.47
2019-01-28T20:32:05.701Z,52.10
2019-01-28T20:37:10.693Z,69.43
2019-01-28T20:42:15.679Z,69.83
2019-01-28T20:47:20.678Z,72.70
2019-01-28T20:52:25.678Z,70.80
2019-01-28T20:57:30.678Z,73.03
2019-01-28T21:02:35.640Z,61.47
2019-01-28T21:07:40.675Z,69.77
2019-01-28T21:12:45.729Z,64.73
2019-01-28T21:17:51.179Z,66.40
2019-01-28T21:22:56.140Z,72.43
2019-01-28T21:28:01.148Z,65.13
2019-01-28T21:33:06.341Z,67.47
2019-01-28T21:38:14.270Z,61.47
2019-01-28T21:43:19.250Z,68.23
2019-01-28T21:48:24.220Z,60.53
2019-01-28T21:53:29.235Z,64.47
2019-01-28T21:58:34.235Z,61.53
2019-01-28T22:03:39.224Z,60.30
2019-01-28T22:08:44.198Z,64.47
2019-01-28T22:13:49.205Z,64.03
2019-01-28T22:18:54.206Z,63.27
2019-01-28T22:23:59.201Z,51.23
2019-01-28T22:29:04.700Z,49.60
2019-01-28T22:34:09.707Z,44.10
2019-01-28T22:39:14.842Z,42.50
2019-01-28T22:44:19.886Z,39.97
2019-01-28T22:49:24.883Z,38.60
2019-01-28T22:54:29.871Z,32.03
2019-01-28T22:59:34.864Z,33.57
2019-01-28T23:04:42.734Z,27.57
2019-01-28T23:09:47.747Z,26.63
2019-01-28T23:14:52.727Z,24.37
2019-01-28T23:19:58.143Z,23.23
2019-01-28T23:25:03.200Z,27.23
2019-01-28T23:30:10.255Z,24.70
2019-01-28T23:35:15.661Z,26.70
2019-01-28T23:40:21.955Z,29.10
2019-01-28T23:45:27.716Z,40.50
2019-01-28T23:50:32.847Z,42.70
2019-01-28T23:55:37.824Z,57.90
